sensor_id;sensor_type;location;lat;lon;timestamp;P1;durP1;ratioP1;P2;durP2;ratioP2
79755;SDS011;69239;50.678;12.280;2023-12-28T00:01:15;2.73;;;1.20;;
79755;SDS011;69239;50.678;12.280;2023-12-28T00:03:41;5.00;;;1.40;;
79755;SDS011;69239;50.678;12.280;2023-12-28T00:06:06;2.50;;;1.30;;
79755;SDS011;69239;50.678;12.280;2023-12-28T00:08:32;2.00;;;1.20;;
79755;SDS011;69239;50.678;12.280;2023-12-28T00:10:57;2.47;;;1.30;;
79755;SDS011;69239;50.678;12.280;2023-12-28T00:13:23;4.88;;;1.25;;
79755;SDS011;69239;50.678;12.280;2023-12-28T00:15:48;2.17;;;1.13;;
79755;SDS011;69239;50.678;12.280;2023-12-28T00:18:13;2.10;;;1.20;;
79755;SDS011;69239;50.678;12.280;2023-12-28T00:20:39;2.38;;;1.42;;
79755;SDS011;69239;50.678;12.280;2023-12-28T00:23:04;2.33;;;1.00;;
79755;SDS011;69239;50.678;12.280;2023-12-28T00:25:31;1.50;;;1.20;;
79755;SDS011;69239;50.678;12.280;2023-12-28T00:27:56;3.00;;;0.90;;
79755;SDS011;69239;50.678;12.280;2023-12-28T00:30:22;2.58;;;1.13;;
79755;SDS011;69239;50.678;12.280;2023-12-28T00:32:47;0.97;;;0.87;;
79755;SDS011;69239;50.678;12.280;2023-12-28T00:35:12;2.00;;;1.02;;
79755;SDS011;69239;50.678;12.280;2023-12-28T00:37:38;1.88;;;0.90;;
79755;SDS011;69239;50.678;12.280;2023-12-28T00:40:04;1.65;;;0.80;;
79755;SDS011;69239;50.678;12.280;2023-12-28T00:42:29;1.92;;;0.95;;
79755;SDS011;69239;50.678;12.280;2023-12-28T00:44:55;1.70;;;1.07;;
79755;SDS011;69239;50.678;12.280;2023-12-28T00:47:20;2.15;;;1.20;;
79755;SDS011;69239;50.678;12.280;2023-12-28T00:49:45;1.97;;;1.03;;
79755;SDS011;69239;50.678;12.280;2023-12-28T00:52:11;1.25;;;0.88;;
79755;SDS011;69239;50.678;12.280;2023-12-28T00:54:36;1.70;;;1.10;;
79755;SDS011;69239;50.678;12.280;2023-12-28T00:57:02;2.00;;;0.80;;
79755;SDS011;69239;50.678;12.280;2023-12-28T00:59:28;1.30;;;0.90;;
79755;SDS011;69239;50.678;12.280;2023-12-28T01:01:55;1.25;;;0.82;;
79755;SDS011;69239;50.678;12.280;2023-12-28T01:04:20;2.00;;;1.15;;
79755;SDS011;69239;50.678;12.280;2023-12-28T01:06:48;1.85;;;0.85;;
79755;SDS011;69239;50.678;12.280;2023-12-28T01:09:14;2.80;;;1.08;;
79755;SDS011;69239;50.678;12.280;2023-12-28T01:11:39;2.43;;;0.90;;
79755;SDS011;69239;50.678;12.280;2023-12-28T01:14:04;1.17;;;0.97;;
79755;SDS011;69239;50.678;12.280;2023-12-28T01:16:29;1.23;;;0.83;;
79755;SDS011;69239;50.678;12.280;2023-12-28T01:18:55;1.83;;;1.03;;
79755;SDS011;69239;50.678;12.280;2023-12-28T01:21:20;0.97;;;0.70;;
79755;SDS011;69239;50.678;12.280;2023-12-28T01:23:45;1.67;;;0.97;;
79755;SDS011;69239;50.678;12.280;2023-12-28T01:26:14;1.08;;;0.85;;
79755;SDS011;69239;50.678;12.280;2023-12-28T01:28:39;2.00;;;0.98;;
79755;SDS011;69239;50.678;12.280;2023-12-28T01:31:05;1.20;;;0.80;;
79755;SDS011;69239;50.678;12.280;2023-12-28T01:33:30;1.70;;;0.77;;
79755;SDS011;69239;50.678;12.280;2023-12-28T01:35:55;2.47;;;0.68;;
79755;SDS011;69239;50.678;12.280;2023-12-28T01:38:21;1.33;;;0.73;;
79755;SDS011;69239;50.678;12.280;2023-12-28T01:40:46;2.65;;;0.60;;
79755;SDS011;69239;50.678;12.280;2023-12-28T01:43:12;1.90;;;1.27;;
79755;SDS011;69239;50.678;12.280;2023-12-28T01:45:37;1.38;;;0.80;;
79755;SDS011;69239;50.678;12.280;2023-12-28T01:48:02;1.73;;;0.90;;
79755;SDS011;69239;50.678;12.280;2023-12-28T01:50:29;1.70;;;0.80;;
79755;SDS011;69239;50.678;12.280;2023-12-28T01:52:56;1.90;;;0.80;;
79755;SDS011;69239;50.678;12.280;2023-12-28T01:55:24;1.65;;;0.60;;
79755;SDS011;69239;50.678;12.280;2023-12-28T01:57:51;1.17;;;0.63;;
79755;SDS011;69239;50.678;12.280;2023-12-28T02:00:16;1.60;;;0.90;;
79755;SDS011;69239;50.678;12.280;2023-12-28T02:02:42;1.38;;;0.60;;
79755;SDS011;69239;50.678;12.280;2023-12-28T02:05:10;1.10;;;0.77;;
79755;SDS011;69239;50.678;12.280;2023-12-28T02:07:40;1.63;;;0.95;;
79755;SDS011;69239;50.678;12.280;2023-12-28T02:10:06;1.65;;;0.90;;
79755;SDS011;69239;50.678;12.280;2023-12-28T02:12:32;1.85;;;0.90;;
79755;SDS011;69239;50.678;12.280;2023-12-28T02:14:57;1.67;;;1.00;;
79755;SDS011;69239;50.678;12.280;2023-12-28T02:20:12;1.55;;;0.73;;
79755;SDS011;69239;50.678;12.280;2023-12-28T02:22:39;1.92;;;0.93;;
79755;SDS011;69239;50.678;12.280;2023-12-28T02:27:37;1.20;;;0.80;;
79755;SDS011;69239;50.678;12.280;2023-12-28T02:30:03;1.65;;;1.10;;
79755;SDS011;69239;50.678;12.280;2023-12-28T02:32:42;2.28;;;1.05;;
79755;SDS011;69239;50.678;12.280;2023-12-28T02:35:36;2.47;;;0.90;;
79755;SDS011;69239;50.678;12.280;2023-12-28T02:38:09;2.42;;;0.93;;
79755;SDS011;69239;50.678;12.280;2023-12-28T02:40:37;1.13;;;0.80;;
79755;SDS011;69239;50.678;12.280;2023-12-28T02:43:04;0.63;;;0.60;;
79755;SDS011;69239;50.678;12.280;2023-12-28T02:45:34;1.85;;;0.82;;
79755;SDS011;69239;50.678;12.280;2023-12-28T02:48:00;1.80;;;0.80;;
79755;SDS011;69239;50.678;12.280;2023-12-28T02:50:25;1.98;;;1.33;;
79755;SDS011;69239;50.678;12.280;2023-12-28T02:52:51;1.27;;;0.70;;
79755;SDS011;69239;50.678;12.280;2023-12-28T02:55:16;1.57;;;0.87;;
79755;SDS011;69239;50.678;12.280;2023-12-28T02:57:42;1.60;;;0.93;;
79755;SDS011;69239;50.678;12.280;2023-12-28T03:00:09;1.65;;;1.15;;
79755;SDS011;69239;50.678;12.280;2023-12-28T03:02:35;1.60;;;1.15;;
79755;SDS011;69239;50.678;12.280;2023-12-28T03:05:02;1.17;;;0.98;;
79755;SDS011;69239;50.678;12.280;2023-12-28T03:07:27;1.50;;;1.00;;
79755;SDS011;69239;50.678;12.280;2023-12-28T03:09:53;1.27;;;0.90;;
79755;SDS011;69239;50.678;12.280;2023-12-28T03:12:18;1.05;;;0.80;;
79755;SDS011;69239;50.678;12.280;2023-12-28T03:14:43;1.77;;;1.10;;
79755;SDS011;69239;50.678;12.280;2023-12-28T03:17:09;2.50;;;1.00;;
79755;SDS011;69239;50.678;12.280;2023-12-28T03:19:36;1.95;;;0.93;;
79755;SDS011;69239;50.678;12.280;2023-12-28T03:22:02;3.30;;;1.03;;
79755;SDS011;69239;50.678;12.280;2023-12-28T03:24:27;1.00;;;0.73;;
79755;SDS011;69239;50.678;12.280;2023-12-28T03:26:52;0.95;;;0.70;;
79755;SDS011;69239;50.678;12.280;2023-12-28T03:29:18;1.70;;;1.13;;
79755;SDS011;69239;50.678;12.280;2023-12-28T03:31:43;1.58;;;1.10;;
79755;SDS011;69239;50.678;12.280;2023-12-28T03:34:08;1.60;;;1.15;;
79755;SDS011;69239;50.678;12.280;2023-12-28T03:36:34;1.93;;;1.03;;
79755;SDS011;69239;50.678;12.280;2023-12-28T03:38:59;1.57;;;1.40;;
79755;SDS011;69239;50.678;12.280;2023-12-28T03:41:24;2.23;;;1.23;;
79755;SDS011;69239;50.678;12.280;2023-12-28T03:43:50;1.30;;;0.90;;
79755;SDS011;69239;50.678;12.280;2023-12-28T03:46:15;2.60;;;0.95;;
79755;SDS011;69239;50.678;12.280;2023-12-28T03:48:40;1.27;;;0.90;;
79755;SDS011;69239;50.678;12.280;2023-12-28T03:51:06;1.65;;;0.93;;
79755;SDS011;69239;50.678;12.280;2023-12-28T03:53:31;2.88;;;1.10;;
79755;SDS011;69239;50.678;12.280;2023-12-28T03:56:00;2.85;;;0.98;;
79755;SDS011;69239;50.678;12.280;2023-12-28T03:58:25;2.53;;;1.30;;
79755;SDS011;69239;50.678;12.280;2023-12-28T04:00:51;1.48;;;0.98;;
79755;SDS011;69239;50.678;12.280;2023-12-28T04:03:17;2.25;;;1.17;;
79755;SDS011;69239;50.678;12.280;2023-12-28T04:05:43;1.20;;;1.00;;
79755;SDS011;69239;50.678;12.280;2023-12-28T04:08:09;1.67;;;0.90;;
79755;SDS011;69239;50.678;12.280;2023-12-28T04:10:34;2.20;;;1.05;;
79755;SDS011;69239;50.678;12.280;2023-12-28T04:13:02;1.23;;;0.90;;
79755;SDS011;69239;50.678;12.280;2023-12-28T04:15:28;1.15;;;0.90;;
79755;SDS011;69239;50.678;12.280;2023-12-28T04:17:54;2.00;;;1.10;;
79755;SDS011;69239;50.678;12.280;2023-12-28T04:20:19;3.38;;;1.08;;
79755;SDS011;69239;50.678;12.280;2023-12-28T04:22:45;1.40;;;1.00;;
79755;SDS011;69239;50.678;12.280;2023-12-28T04:25:10;1.70;;;1.00;;
79755;SDS011;69239;50.678;12.280;2023-12-28T04:27:37;1.40;;;1.00;;
79755;SDS011;69239;50.678;12.280;2023-12-28T04:30:03;1.15;;;0.80;;
79755;SDS011;69239;50.678;12.280;2023-12-28T04:32:30;1.85;;;1.02;;
79755;SDS011;69239;50.678;12.280;2023-12-28T04:34:56;3.13;;;1.33;;
79755;SDS011;69239;50.678;12.280;2023-12-28T04:37:21;1.65;;;1.10;;
79755;SDS011;69239;50.678;12.280;2023-12-28T04:42:42;1.83;;;1.00;;
79755;SDS011;69239;50.678;12.280;2023-12-28T04:45:08;2.20;;;1.20;;
79755;SDS011;69239;50.678;12.280;2023-12-28T04:47:35;2.40;;;1.10;;
79755;SDS011;69239;50.678;12.280;2023-12-28T04:50:00;3.65;;;0.90;;
79755;SDS011;69239;50.678;12.280;2023-12-28T04:52:25;1.67;;;1.10;;
79755;SDS011;69239;50.678;12.280;2023-12-28T04:54:51;2.17;;;1.13;;
79755;SDS011;69239;50.678;12.280;2023-12-28T04:57:16;2.85;;;1.23;;
79755;SDS011;69239;50.678;12.280;2023-12-28T04:59:41;2.60;;;1.00;;
79755;SDS011;69239;50.678;12.280;2023-12-28T05:02:07;1.63;;;1.20;;
79755;SDS011;69239;50.678;12.280;2023-12-28T05:04:33;3.53;;;1.25;;
79755;SDS011;69239;50.678;12.280;2023-12-28T05:07:01;1.92;;;1.20;;
79755;SDS011;69239;50.678;12.280;2023-12-28T05:09:26;3.13;;;1.15;;
79755;SDS011;69239;50.678;12.280;2023-12-28T05:11:52;3.55;;;1.60;;
79755;SDS011;69239;50.678;12.280;2023-12-28T05:14:17;2.80;;;1.13;;
79755;SDS011;69239;50.678;12.280;2023-12-28T05:16:42;2.33;;;1.00;;
79755;SDS011;69239;50.678;12.280;2023-12-28T05:19:08;1.63;;;1.08;;
79755;SDS011;69239;50.678;12.280;2023-12-28T05:21:34;1.92;;;0.90;;
79755;SDS011;69239;50.678;12.280;2023-12-28T05:23:59;2.75;;;1.48;;
79755;SDS011;69239;50.678;12.280;2023-12-28T05:26:24;3.38;;;1.20;;
79755;SDS011;69239;50.678;12.280;2023-12-28T05:28:51;2.13;;;1.40;;
79755;SDS011;69239;50.678;12.280;2023-12-28T05:31:16;2.05;;;1.30;;
79755;SDS011;69239;50.678;12.280;2023-12-28T05:33:41;2.20;;;1.20;;
79755;SDS011;69239;50.678;12.280;2023-12-28T05:36:07;2.63;;;1.27;;
79755;SDS011;69239;50.678;12.280;2023-12-28T05:38:32;2.00;;;1.10;;
79755;SDS011;69239;50.678;12.280;2023-12-28T05:40:58;1.17;;;0.93;;
79755;SDS011;69239;50.678;12.280;2023-12-28T05:43:23;2.92;;;1.40;;
79755;SDS011;69239;50.678;12.280;2023-12-28T05:45:49;1.83;;;1.20;;
79755;SDS011;69239;50.678;12.280;2023-12-28T05:48:14;2.83;;;1.47;;
79755;SDS011;69239;50.678;12.280;2023-12-28T05:50:40;2.65;;;1.40;;
79755;SDS011;69239;50.678;12.280;2023-12-28T05:53:05;2.45;;;1.33;;
79755;SDS011;69239;50.678;12.280;2023-12-28T05:55:30;2.77;;;1.43;;
79755;SDS011;69239;50.678;12.280;2023-12-28T05:57:56;2.60;;;1.20;;
79755;SDS011;69239;50.678;12.280;2023-12-28T06:00:21;1.90;;;1.20;;
79755;SDS011;69239;50.678;12.280;2023-12-28T06:02:47;3.08;;;1.20;;
79755;SDS011;69239;50.678;12.280;2023-12-28T06:05:16;3.35;;;1.70;;
79755;SDS011;69239;50.678;12.280;2023-12-28T06:07:41;2.08;;;1.30;;
79755;SDS011;69239;50.678;12.280;2023-12-28T06:10:07;2.10;;;1.40;;
79755;SDS011;69239;50.678;12.280;2023-12-28T06:12:33;2.22;;;1.30;;
79755;SDS011;69239;50.678;12.280;2023-12-28T06:14:58;2.08;;;1.20;;
79755;SDS011;69239;50.678;12.280;2023-12-28T06:17:24;3.10;;;1.27;;
79755;SDS011;69239;50.678;12.280;2023-12-28T06:19:50;2.25;;;1.50;;
79755;SDS011;69239;50.678;12.280;2023-12-28T06:22:15;2.40;;;1.75;;
79755;SDS011;69239;50.678;12.280;2023-12-28T06:24:40;2.13;;;1.40;;
79755;SDS011;69239;50.678;12.280;2023-12-28T06:27:06;2.23;;;1.20;;
79755;SDS011;69239;50.678;12.280;2023-12-28T06:29:31;1.77;;;1.20;;
79755;SDS011;69239;50.678;12.280;2023-12-28T06:31:56;4.72;;;1.65;;
79755;SDS011;69239;50.678;12.280;2023-12-28T06:34:22;1.77;;;1.10;;
79755;SDS011;69239;50.678;12.280;2023-12-28T06:36:47;2.40;;;1.58;;
79755;SDS011;69239;50.678;12.280;2023-12-28T06:39:13;5.55;;;1.48;;
79755;SDS011;69239;50.678;12.280;2023-12-28T06:41:38;2.75;;;1.52;;
79755;SDS011;69239;50.678;12.280;2023-12-28T06:44:04;2.55;;;1.55;;
79755;SDS011;69239;50.678;12.280;2023-12-28T06:46:29;2.78;;;1.00;;
79755;SDS011;69239;50.678;12.280;2023-12-28T06:48:54;2.03;;;1.20;;
79755;SDS011;69239;50.678;12.280;2023-12-28T06:51:20;1.80;;;1.40;;
79755;SDS011;69239;50.678;12.280;2023-12-28T06:53:46;2.42;;;1.25;;
79755;SDS011;69239;50.678;12.280;2023-12-28T06:56:13;2.15;;;1.35;;
79755;SDS011;69239;50.678;12.280;2023-12-28T06:58:39;1.98;;;1.38;;
79755;SDS011;69239;50.678;12.280;2023-12-28T07:01:05;4.10;;;1.60;;
79755;SDS011;69239;50.678;12.280;2023-12-28T07:03:31;2.72;;;1.38;;
79755;SDS011;69239;50.678;12.280;2023-12-28T07:05:58;3.42;;;1.58;;
79755;SDS011;69239;50.678;12.280;2023-12-28T07:08:27;2.50;;;1.58;;
79755;SDS011;69239;50.678;12.280;2023-12-28T07:10:52;3.77;;;1.83;;
79755;SDS011;69239;50.678;12.280;2023-12-28T07:13:18;2.90;;;1.42;;
79755;SDS011;69239;50.678;12.280;2023-12-28T07:15:43;4.25;;;1.50;;
79755;SDS011;69239;50.678;12.280;2023-12-28T07:18:08;2.70;;;1.60;;
79755;SDS011;69239;50.678;12.280;2023-12-28T07:20:34;2.50;;;1.40;;
79755;SDS011;69239;50.678;12.280;2023-12-28T07:22:59;3.38;;;1.60;;
79755;SDS011;69239;50.678;12.280;2023-12-28T07:25:25;3.38;;;1.55;;
79755;SDS011;69239;50.678;12.280;2023-12-28T07:27:50;2.85;;;1.50;;
79755;SDS011;69239;50.678;12.280;2023-12-28T07:30:15;2.80;;;1.40;;
79755;SDS011;69239;50.678;12.280;2023-12-28T07:32:42;3.42;;;1.63;;
79755;SDS011;69239;50.678;12.280;2023-12-28T07:35:08;1.23;;;1.08;;
79755;SDS011;69239;50.678;12.280;2023-12-28T07:37:34;3.08;;;1.45;;
79755;SDS011;69239;50.678;12.280;2023-12-28T07:40:00;2.47;;;1.25;;
79755;SDS011;69239;50.678;12.280;2023-12-28T07:42:26;2.13;;;1.20;;
79755;SDS011;69239;50.678;12.280;2023-12-28T07:44:52;2.20;;;1.25;;
79755;SDS011;69239;50.678;12.280;2023-12-28T07:47:17;2.75;;;1.70;;
79755;SDS011;69239;50.678;12.280;2023-12-28T07:49:42;2.27;;;1.40;;
79755;SDS011;69239;50.678;12.280;2023-12-28T07:52:08;3.88;;;1.20;;
79755;SDS011;69239;50.678;12.280;2023-12-28T07:54:33;1.77;;;1.13;;
79755;SDS011;69239;50.678;12.280;2023-12-28T07:56:59;2.15;;;1.45;;
79755;SDS011;69239;50.678;12.280;2023-12-28T07:59:24;2.40;;;1.20;;
79755;SDS011;69239;50.678;12.280;2023-12-28T08:01:50;1.98;;;1.25;;
79755;SDS011;69239;50.678;12.280;2023-12-28T08:04:15;3.17;;;1.35;;
79755;SDS011;69239;50.678;12.280;2023-12-28T08:06:40;2.60;;;1.67;;
79755;SDS011;69239;50.678;12.280;2023-12-28T08:09:06;3.58;;;1.33;;
79755;SDS011;69239;50.678;12.280;2023-12-28T08:11:31;2.22;;;1.60;;
79755;SDS011;69239;50.678;12.280;2023-12-28T08:13:57;3.43;;;1.73;;
79755;SDS011;69239;50.678;12.280;2023-12-28T08:16:22;2.55;;;1.30;;
79755;SDS011;69239;50.678;12.280;2023-12-28T08:18:48;1.58;;;1.17;;
79755;SDS011;69239;50.678;12.280;2023-12-28T08:21:13;3.35;;;1.50;;
79755;SDS011;69239;50.678;12.280;2023-12-28T08:23:39;3.67;;;1.63;;
79755;SDS011;69239;50.678;12.280;2023-12-28T08:26:04;2.58;;;1.73;;
79755;SDS011;69239;50.678;12.280;2023-12-28T08:28:30;2.33;;;1.27;;
79755;SDS011;69239;50.678;12.280;2023-12-28T08:30:56;2.40;;;1.27;;
79755;SDS011;69239;50.678;12.280;2023-12-28T08:33:21;1.50;;;1.25;;
79755;SDS011;69239;50.678;12.280;2023-12-28T08:35:47;3.90;;;1.90;;
79755;SDS011;69239;50.678;12.280;2023-12-28T08:38:13;2.58;;;1.13;;
79755;SDS011;69239;50.678;12.280;2023-12-28T08:40:38;3.13;;;1.40;;
79755;SDS011;69239;50.678;12.280;2023-12-28T08:43:03;2.35;;;1.52;;
79755;SDS011;69239;50.678;12.280;2023-12-28T08:45:29;3.08;;;1.50;;
79755;SDS011;69239;50.678;12.280;2023-12-28T08:47:55;2.55;;;1.75;;
79755;SDS011;69239;50.678;12.280;2023-12-28T08:50:20;4.78;;;1.80;;
79755;SDS011;69239;50.678;12.280;2023-12-28T08:52:46;3.00;;;1.40;;
79755;SDS011;69239;50.678;12.280;2023-12-28T08:55:11;2.58;;;1.35;;
79755;SDS011;69239;50.678;12.280;2023-12-28T08:57:37;3.90;;;1.30;;
79755;SDS011;69239;50.678;12.280;2023-12-28T09:00:04;2.10;;;1.48;;
79755;SDS011;69239;50.678;12.280;2023-12-28T09:02:32;2.78;;;1.52;;
79755;SDS011;69239;50.678;12.280;2023-12-28T09:04:58;4.72;;;1.67;;
79755;SDS011;69239;50.678;12.280;2023-12-28T09:07:24;2.67;;;1.45;;
79755;SDS011;69239;50.678;12.280;2023-12-28T09:09:50;3.60;;;1.70;;
79755;SDS011;69239;50.678;12.280;2023-12-28T09:12:15;3.22;;;1.40;;
79755;SDS011;69239;50.678;12.280;2023-12-28T09:14:40;2.25;;;1.23;;
79755;SDS011;69239;50.678;12.280;2023-12-28T09:17:06;3.92;;;1.65;;
79755;SDS011;69239;50.678;12.280;2023-12-28T09:19:31;2.40;;;1.40;;
79755;SDS011;69239;50.678;12.280;2023-12-28T09:21:57;3.10;;;1.50;;
79755;SDS011;69239;50.678;12.280;2023-12-28T09:24:22;1.50;;;1.00;;
79755;SDS011;69239;50.678;12.280;2023-12-28T09:26:47;1.92;;;1.27;;
79755;SDS011;69239;50.678;12.280;2023-12-28T09:29:12;2.25;;;1.42;;
79755;SDS011;69239;50.678;12.280;2023-12-28T09:31:39;2.30;;;1.55;;
79755;SDS011;69239;50.678;12.280;2023-12-28T09:34:04;1.70;;;1.35;;
79755;SDS011;69239;50.678;12.280;2023-12-28T09:36:30;1.90;;;1.50;;
79755;SDS011;69239;50.678;12.280;2023-12-28T09:38:55;1.80;;;1.10;;
79755;SDS011;69239;50.678;12.280;2023-12-28T09:41:21;4.10;;;1.92;;
79755;SDS011;69239;50.678;12.280;2023-12-28T09:43:56;2.05;;;1.55;;
79755;SDS011;69239;50.678;12.280;2023-12-28T09:46:31;1.88;;;1.38;;
79755;SDS011;69239;50.678;12.280;2023-12-28T09:48:58;4.50;;;1.63;;
79755;SDS011;69239;50.678;12.280;2023-12-28T09:51:24;1.95;;;1.15;;
79755;SDS011;69239;50.678;12.280;2023-12-28T09:53:50;2.47;;;1.40;;
79755;SDS011;69239;50.678;12.280;2023-12-28T09:59:26;2.65;;;1.52;;
79755;SDS011;69239;50.678;12.280;2023-12-28T10:01:52;2.33;;;1.15;;
79755;SDS011;69239;50.678;12.280;2023-12-28T10:04:20;1.98;;;1.17;;
79755;SDS011;69239;50.678;12.280;2023-12-28T10:06:46;2.10;;;1.77;;
79755;SDS011;69239;50.678;12.280;2023-12-28T10:09:11;2.38;;;1.10;;
79755;SDS011;69239;50.678;12.280;2023-12-28T10:11:36;3.33;;;1.67;;
79755;SDS011;69239;50.678;12.280;2023-12-28T10:14:03;1.40;;;1.02;;
79755;SDS011;69239;50.678;12.280;2023-12-28T10:16:29;2.33;;;1.30;;
79755;SDS011;69239;50.678;12.280;2023-12-28T10:18:55;1.60;;;1.08;;
79755;SDS011;69239;50.678;12.280;2023-12-28T10:21:23;3.10;;;1.55;;
79755;SDS011;69239;50.678;12.280;2023-12-28T10:23:48;2.75;;;1.63;;
79755;SDS011;69239;50.678;12.280;2023-12-28T10:26:14;1.25;;;1.05;;
79755;SDS011;69239;50.678;12.280;2023-12-28T10:28:39;1.92;;;1.10;;
79755;SDS011;69239;50.678;12.280;2023-12-28T10:31:05;1.77;;;1.13;;
79755;SDS011;69239;50.678;12.280;2023-12-28T10:33:34;3.33;;;1.38;;
79755;SDS011;69239;50.678;12.280;2023-12-28T10:36:06;3.60;;;1.65;;
79755;SDS011;69239;50.678;12.280;2023-12-28T10:38:36;2.65;;;1.23;;
79755;SDS011;69239;50.678;12.280;2023-12-28T10:41:08;1.83;;;1.35;;
79755;SDS011;69239;50.678;12.280;2023-12-28T10:49:24;2.13;;;1.10;;
79755;SDS011;69239;50.678;12.280;2023-12-28T10:51:51;2.08;;;1.35;;
79755;SDS011;69239;50.678;12.280;2023-12-28T10:57:06;1.75;;;1.05;;
79755;SDS011;69239;50.678;12.280;2023-12-28T10:59:45;1.38;;;0.98;;
79755;SDS011;69239;50.678;12.280;2023-12-28T11:02:21;1.70;;;0.90;;
79755;SDS011;69239;50.678;12.280;2023-12-28T11:04:50;1.52;;;1.10;;
79755;SDS011;69239;50.678;12.280;2023-12-28T11:07:18;1.63;;;1.05;;
79755;SDS011;69239;50.678;12.280;2023-12-28T11:09:44;1.83;;;1.23;;
79755;SDS011;69239;50.678;12.280;2023-12-28T11:12:10;1.58;;;0.85;;
79755;SDS011;69239;50.678;12.280;2023-12-28T11:14:39;1.13;;;0.63;;
79755;SDS011;69239;50.678;12.280;2023-12-28T11:17:05;2.00;;;1.17;;
79755;SDS011;69239;50.678;12.280;2023-12-28T11:19:31;1.10;;;1.00;;
79755;SDS011;69239;50.678;12.280;2023-12-28T11:21:59;1.90;;;0.90;;
79755;SDS011;69239;50.678;12.280;2023-12-28T11:24:27;2.17;;;1.02;;
79755;SDS011;69239;50.678;12.280;2023-12-28T11:26:54;1.23;;;0.95;;
79755;SDS011;69239;50.678;12.280;2023-12-28T11:29:20;1.30;;;0.70;;
79755;SDS011;69239;50.678;12.280;2023-12-28T11:31:53;1.90;;;0.73;;
79755;SDS011;69239;50.678;12.280;2023-12-28T11:34:19;1.95;;;0.82;;
79755;SDS011;69239;50.678;12.280;2023-12-28T11:36:51;1.75;;;0.82;;
79755;SDS011;69239;50.678;12.280;2023-12-28T11:39:20;1.55;;;0.90;;
79755;SDS011;69239;50.678;12.280;2023-12-28T11:41:58;2.15;;;0.90;;
79755;SDS011;69239;50.678;12.280;2023-12-28T11:44:42;1.17;;;0.77;;
79755;SDS011;69239;50.678;12.280;2023-12-28T11:47:15;1.52;;;0.95;;
79755;SDS011;69239;50.678;12.280;2023-12-28T11:49:45;1.58;;;0.80;;
79755;SDS011;69239;50.678;12.280;2023-12-28T11:52:11;1.05;;;0.70;;
79755;SDS011;69239;50.678;12.280;2023-12-28T11:54:48;1.42;;;0.93;;
79755;SDS011;69239;50.678;12.280;2023-12-28T11:57:17;1.75;;;0.75;;
79755;SDS011;69239;50.678;12.280;2023-12-28T11:59:43;1.50;;;0.85;;
79755;SDS011;69239;50.678;12.280;2023-12-28T12:02:09;1.63;;;0.63;;
79755;SDS011;69239;50.678;12.280;2023-12-28T12:04:34;1.15;;;0.85;;
79755;SDS011;69239;50.678;12.280;2023-12-28T12:07:03;1.58;;;0.70;;
79755;SDS011;69239;50.678;12.280;2023-12-28T12:09:29;1.08;;;0.60;;
79755;SDS011;69239;50.678;12.280;2023-12-28T12:11:59;1.48;;;0.80;;
79755;SDS011;69239;50.678;12.280;2023-12-28T12:14:28;1.13;;;0.73;;
79755;SDS011;69239;50.678;12.280;2023-12-28T12:16:54;2.28;;;0.77;;
79755;SDS011;69239;50.678;12.280;2023-12-28T12:19:26;1.13;;;0.70;;
79755;SDS011;69239;50.678;12.280;2023-12-28T12:21:52;1.35;;;0.75;;
79755;SDS011;69239;50.678;12.280;2023-12-28T12:24:19;0.93;;;0.80;;
79755;SDS011;69239;50.678;12.280;2023-12-28T12:26:45;1.33;;;0.63;;
79755;SDS011;69239;50.678;12.280;2023-12-28T12:29:11;1.27;;;0.93;;
79755;SDS011;69239;50.678;12.280;2023-12-28T12:31:36;1.67;;;0.90;;
79755;SDS011;69239;50.678;12.280;2023-12-28T12:34:05;2.85;;;1.25;;
79755;SDS011;69239;50.678;12.280;2023-12-28T12:36:31;3.20;;;1.55;;
79755;SDS011;69239;50.678;12.280;2023-12-28T12:38:56;3.88;;;1.08;;
79755;SDS011;69239;50.678;12.280;2023-12-28T12:41:22;1.95;;;0.82;;
79755;SDS011;69239;50.678;12.280;2023-12-28T12:43:47;1.67;;;0.77;;
79755;SDS011;69239;50.678;12.280;2023-12-28T12:46:12;4.05;;;0.93;;
79755;SDS011;69239;50.678;12.280;2023-12-28T12:48:38;1.00;;;0.50;;
79755;SDS011;69239;50.678;12.280;2023-12-28T12:51:05;1.15;;;0.77;;
79755;SDS011;69239;50.678;12.280;2023-12-28T12:53:34;1.83;;;0.88;;
79755;SDS011;69239;50.678;12.280;2023-12-28T12:56:00;1.20;;;0.80;;
79755;SDS011;69239;50.678;12.280;2023-12-28T12:58:27;0.95;;;0.75;;
79755;SDS011;69239;50.678;12.280;2023-12-28T13:00:55;1.20;;;0.70;;
79755;SDS011;69239;50.678;12.280;2023-12-28T13:03:20;0.80;;;0.55;;
79755;SDS011;69239;50.678;12.280;2023-12-28T13:05:46;0.93;;;0.75;;
79755;SDS011;69239;50.678;12.280;2023-12-28T13:08:11;1.25;;;1.08;;
79755;SDS011;69239;50.678;12.280;2023-12-28T13:10:40;0.90;;;0.75;;
79755;SDS011;69239;50.678;12.280;2023-12-28T13:13:06;1.27;;;0.80;;
79755;SDS011;69239;50.678;12.280;2023-12-28T13:15:32;1.52;;;0.82;;
79755;SDS011;69239;50.678;12.280;2023-12-28T13:17:57;0.50;;;0.50;;
79755;SDS011;69239;50.678;12.280;2023-12-28T13:20:22;1.53;;;0.90;;
79755;SDS011;69239;50.678;12.280;2023-12-28T13:22:48;2.40;;;0.82;;
79755;SDS011;69239;50.678;12.280;2023-12-28T13:25:13;2.23;;;1.10;;
79755;SDS011;69239;50.678;12.280;2023-12-28T13:27:40;3.13;;;1.42;;
79755;SDS011;69239;50.678;12.280;2023-12-28T13:30:05;2.10;;;1.38;;
79755;SDS011;69239;50.678;12.280;2023-12-28T13:32:31;1.02;;;0.82;;
79755;SDS011;69239;50.678;12.280;2023-12-28T13:34:56;1.75;;;0.77;;
79755;SDS011;69239;50.678;12.280;2023-12-28T13:37:22;1.90;;;1.10;;
79755;SDS011;69239;50.678;12.280;2023-12-28T13:39:47;1.63;;;1.00;;
79755;SDS011;69239;50.678;12.280;2023-12-28T13:42:12;2.67;;;1.00;;
79755;SDS011;69239;50.678;12.280;2023-12-28T13:44:38;2.55;;;1.10;;
79755;SDS011;69239;50.678;12.280;2023-12-28T13:47:03;1.70;;;0.82;;
79755;SDS011;69239;50.678;12.280;2023-12-28T13:49:30;1.67;;;0.90;;
79755;SDS011;69239;50.678;12.280;2023-12-28T13:51:56;0.63;;;0.63;;
79755;SDS011;69239;50.678;12.280;2023-12-28T13:54:21;1.40;;;0.70;;
79755;SDS011;69239;50.678;12.280;2023-12-28T13:56:47;1.43;;;0.77;;
79755;SDS011;69239;50.678;12.280;2023-12-28T13:59:13;2.45;;;0.70;;
79755;SDS011;69239;50.678;12.280;2023-12-28T14:01:38;0.90;;;0.55;;
79755;SDS011;69239;50.678;12.280;2023-12-28T14:04:04;2.58;;;0.55;;
79755;SDS011;69239;50.678;12.280;2023-12-28T14:06:29;1.98;;;0.60;;
79755;SDS011;69239;50.678;12.280;2023-12-28T14:08:54;1.20;;;0.70;;
79755;SDS011;69239;50.678;12.280;2023-12-28T14:11:21;0.93;;;0.68;;
79755;SDS011;69239;50.678;12.280;2023-12-28T14:13:46;2.17;;;0.80;;
79755;SDS011;69239;50.678;12.280;2023-12-28T14:16:12;2.35;;;0.90;;
79755;SDS011;69239;50.678;12.280;2023-12-28T14:18:37;1.33;;;0.70;;
79755;SDS011;69239;50.678;12.280;2023-12-28T14:21:06;1.95;;;0.70;;
79755;SDS011;69239;50.678;12.280;2023-12-28T14:23:32;1.10;;;0.70;;
79755;SDS011;69239;50.678;12.280;2023-12-28T14:25:58;0.68;;;0.60;;
79755;SDS011;69239;50.678;12.280;2023-12-28T14:28:23;2.38;;;1.00;;
79755;SDS011;69239;50.678;12.280;2023-12-28T14:30:49;2.13;;;0.90;;
79755;SDS011;69239;50.678;12.280;2023-12-28T14:33:15;2.72;;;0.98;;
79755;SDS011;69239;50.678;12.280;2023-12-28T14:35:40;1.23;;;0.90;;
79755;SDS011;69239;50.678;12.280;2023-12-28T14:38:06;1.27;;;0.70;;
79755;SDS011;69239;50.678;12.280;2023-12-28T14:40:33;1.45;;;0.80;;
79755;SDS011;69239;50.678;12.280;2023-12-28T14:42:58;1.00;;;0.75;;
79755;SDS011;69239;50.678;12.280;2023-12-28T14:45:24;1.30;;;0.80;;
79755;SDS011;69239;50.678;12.280;2023-12-28T14:47:49;1.03;;;0.70;;